Terminal Aerodrome Forecast
Issued by NWS Wilmington, OH

Current Version | Previous Version | Graphics & Text | Print | Product List | Glossary On
Versions: 1 2 3 4 5 6 7 8 9 10 11 12 13 14 15 16 17 18 19 20 21 22 23 24 25 26 27 28 29 30 31 32
000
FTUS41 KILN 300900 AAA
TAFCVG
TAF AMD
KCVG 300912Z 3009/3112 30012KT P6SM VCSH SCT015 OVC045
     FM301100 32014G22KT P6SM VCSH OVC050
      TEMPO 3011/3013 5SM -SN BR BKN015
     FM301600 33012KT P6SM BKN025
     FM302300 35007KT P6SM SCT250
     FM310200 VRB03KT P6SM SKC=

USA.gov is the U.S. government's official web portal to all federal, state and local government web resources and services.